Time;durP1;ratioP1;P1;durP2;ratioP2;P2;SDS_P1;SDS_P2;PMS_P1;PMS_P2;Temp;Humidity;BMP_temperature;BMP_pressure;BME280_temperature;BME280_humidity;BME280_pressure;Samples;Min_cycle;Max_cycle;Signal;HPM_P1;HPM_P2
2022/07/28 00:00:01;;;;;;;;;;;;;;;18.11;51.73;96851.78;30001;982;1877;-60
2022/07/28 00:00:32;;;;;;;;;;;;;;;18.09;51.49;96850.19;30001;983;1876;-59
2022/07/28 00:01:03;;;;;;;;;;;;;;;18.06;52.28;96848.13;30001;983;1876;-60
2022/07/28 00:01:34;;;;;;;;;;;;;;;18.06;52.15;96850.88;30001;974;1863;-59
2022/07/28 00:02:05;;;;;;;;;;;;;;;18.03;51.60;96851.56;30001;983;1867;-59
2022/07/28 00:02:37;;;;;;;;;;;;;;;18.00;51.66;96852.25;30001;983;1877;-59
2022/07/28 00:03:07;;;;;;;;;;;;;;;18.01;51.60;96848.38;30001;983;1876;-59
2022/07/28 00:03:38;;;;;;;;;;;;;;;18.01;51.67;96848.38;30001;983;1877;-54
2022/07/28 00:04:10;;;;;;;;;;;;;;;18.00;51.71;96851.47;30001;983;1877;-60
2022/07/28 00:04:41;;;;;;;;;;;;;;;17.97;51.39;96847.44;30001;983;1877;-59
2022/07/28 00:05:11;;;;;;;;;;;;;;;17.97;51.55;96847.44;30001;982;1877;-53
2022/07/28 00:05:42;;;;;;;;;;;;;;;17.96;51.43;96854.09;30001;982;1877;-60
2022/07/28 00:06:13;;;;;;;;;;;;;;;17.94;51.49;96848.13;30001;982;1864;-59
2022/07/28 00:06:44;;;;;;;;;;;;;;;17.92;51.36;96844.13;30001;982;1868;-59
2022/07/28 00:07:17;;;;;;;;;;;;;;;17.91;51.36;96843.31;30001;982;1877;-59
2022/07/28 00:07:48;;;;;;;;;;;;;;;17.90;51.28;96838.97;30001;983;1876;-60
2022/07/28 00:08:19;;;;;;;;;;;;;;;17.90;51.52;96847.22;30001;983;1876;-60
2022/07/28 00:08:50;;;;;;;;;;;;;;;17.91;51.23;96839.78;30001;983;1876;-59
2022/07/28 00:09:21;;;;;;;;;;;;;;;17.90;51.96;96841.72;30001;983;1876;-53
2022/07/28 00:09:52;;;;;;;;;;;;;;;17.90;51.74;96835.44;30001;983;1876;-60
2022/07/28 00:10:22;;;;;;;;;;;;;;;17.90;51.82;96847.22;30001;983;1877;-60
2022/07/28 00:10:53;;;;;;;;;;;;;;;17.90;51.75;96840.91;30001;983;1863;-60
2022/07/28 00:11:24;;;;;;;;;;;;;;;17.89;51.55;96837.37;30001;983;1868;-60
2022/07/28 00:11:55;;;;;;;;;;;;;;;17.89;51.55;96839.31;30001;983;1877;-59
2022/07/28 00:12:26;;;;;;;;;;;;;;;17.88;51.90;96832.22;30001;983;1877;-60
2022/07/28 00:12:58;;;;;;;;;;;;;;;17.87;51.55;96841.59;30001;982;1877;-59
2022/07/28 00:13:29;;;;;;;;;;;;;;;17.86;51.29;96840.78;30001;986;1877;-59
2022/07/28 00:14:00;;;;;;;;;;;;;;;17.85;50.91;96836.44;30001;982;1877;-59
2022/07/28 00:14:33;;;;;;;;;;;;;;;17.85;51.13;96835.66;30001;982;1864;-59
2022/07/28 00:15:05;;;;;;;;;;;;;;;17.84;51.51;96837.59;30001;982;1868;-54
2022/07/28 00:15:35;;;;;;;;;;;;;;;17.83;51.80;96838.72;30001;983;1876;-59
2022/07/28 00:16:06;;;;;;;;;;;;;;;17.80;51.48;96842.16;30001;983;1876;-60
2022/07/28 00:16:37;;;;;;;;;;;;;;;17.79;51.82;96840.56;30001;983;1864;-60
2022/07/28 00:17:12;;;;;;;;;;;;;;;17.77;51.58;96837.34;30001;983;1868;-53
2022/07/28 00:17:43;;;;;;;;;;;;;;;17.78;51.82;96835.41;30001;983;1877;-59
2022/07/28 00:18:14;;;;;;;;;;;;;;;17.77;51.71;96836.53;30001;983;1877;-60
2022/07/28 00:18:45;;;;;;;;;;;;;;;17.76;51.89;96835.75;30001;983;1877;-60
2022/07/28 00:19:16;;;;;;;;;;;;;;;17.77;51.40;96837.34;30001;983;1877;-54
2022/07/28 00:19:46;;;;;;;;;;;;;;;17.77;51.44;96831.06;30001;983;1877;-53
2022/07/28 00:20:19;;;;;;;;;;;;;;;17.78;51.12;96827.97;30001;982;1877;-59
2022/07/28 00:20:51;;;;;;;;;;;;;;;17.78;51.56;96835.41;30001;982;1877;-60
2022/07/28 00:21:23;;;;;;;;;;;;;;;17.77;51.26;96829.09;30001;982;1877;-59
2022/07/28 00:21:55;;;;;;;;;;;;;;;17.77;51.36;96834.59;30001;982;1864;-59
2022/07/28 00:22:26;;;;;;;;;;;;;;;17.76;51.55;96830.25;30001;982;1868;-59
2022/07/28 00:22:57;;;;;;;;;;;;;;;17.75;51.78;96834.12;30001;983;1876;-54
2022/07/28 00:23:28;;;;;;;;;;;;;;;17.74;51.38;96827.03;30001;983;1876;-60
2022/07/28 00:24:02;;;;;;;;;;;;;;;17.74;51.67;96827.03;30001;983;1876;-60
2022/07/28 00:24:32;;;;;;;;;;;;;;;17.74;51.40;96827.84;30001;983;1863;-59
2022/07/28 00:25:04;;;;;;;;;;;;;;;17.73;51.11;96826.25;30001;983;1868;-59
2022/07/28 00:25:35;;;;;;;;;;;;;;;17.73;50.90;96817.22;30001;983;1877;-54
2022/07/28 00:26:10;;;;;;;;;;;;;;;17.73;51.31;96825.44;30001;983;1877;-54
2022/07/28 00:26:41;;;;;;;;;;;;;;;17.73;50.83;96826.25;30001;983;1877;-60
2022/07/28 00:27:13;;;;;;;;;;;;;;;17.72;50.86;96823.84;30001;983;1877;-59
2022/07/28 00:27:44;;;;;;;;;;;;;;;17.71;51.13;96825.78;30001;983;1877;-53
2022/07/28 00:28:15;;;;;;;;;;;;;;;17.71;50.92;96824.97;30001;982;1864;-59
2022/07/28 00:28:46;;;;;;;;;;;;;;;17.70;50.97;96820.63;30001;982;1868;-60
2022/07/28 00:29:18;;;;;;;;;;;;;;;17.71;50.92;96824.97;30001;982;1864;-59
2022/07/28 00:29:48;;;;;;;;;;;;;;;17.71;51.54;96824.97;30001;982;1868;-53
2022/07/28 00:30:20;;;;;;;;;;;;;;;17.70;51.83;96826.91;30001;983;1876;-54
2022/07/28 00:30:54;;;;;;;;;;;;;;;17.70;51.54;96820.63;30001;983;1876;-59
2022/07/28 00:31:25;;;;;;;;;;;;;;;17.69;51.54;96824.50;30001;983;1876;-54
2022/07/28 00:31:56;;;;;;;;;;;;;;;17.68;51.45;96820.16;30001;983;1876;-53
2022/07/28 00:32:30;;;;;;;;;;;;;;;17.66;51.54;96819.75;30001;983;1876;-58
2022/07/28 00:33:00;;;;;;;;;;;;;;;17.66;51.44;96814.25;30001;983;1863;-59
2022/07/28 00:33:31;;;;;;;;;;;;;;;17.65;51.00;96812.66;30001;983;1855;-53
2022/07/28 00:34:02;;;;;;;;;;;;;;;17.64;51.31;96822.78;30001;983;1877;-59
2022/07/28 00:34:33;;;;;;;;;;;;;;;17.65;51.17;96818.13;30001;982;1864;-53
2022/07/28 00:35:04;;;;;;;;;;;;;;;17.63;51.68;96809.41;30001;982;1868;-53
2022/07/28 00:35:36;;;;;;;;;;;;;;;17.62;51.87;96818.78;30001;982;1877;-53
2022/07/28 00:36:08;;;;;;;;;;;;;;;17.63;52.15;96825.88;30001;982;1877;-59
2022/07/28 00:36:40;;;;;;;;;;;;;;;17.61;52.27;96817.19;30001;982;1877;-60
2022/07/28 00:37:12;;;;;;;;;;;;;;;17.61;52.00;96811.69;30001;982;1877;-60
2022/07/28 00:37:46;;;;;;;;;;;;;;;17.62;52.07;96821.53;30001;982;1877;-59
2022/07/28 00:38:17;;;;;;;;;;;;;;;17.61;51.54;96815.22;30001;983;1876;-53
2022/07/28 00:38:48;;;;;;;;;;;;;;;17.60;51.77;96810.88;30001;983;1864;-59
2022/07/28 00:39:19;;;;;;;;;;;;;;;17.60;51.58;96810.09;30001;983;1868;-53
2022/07/28 00:39:49;;;;;;;;;;;;;;;17.59;51.80;96808.47;30001;983;1877;-53
2022/07/28 00:40:21;;;;;;;;;;;;;;;17.58;51.32;96815.91;30001;983;1877;-55
2022/07/28 00:41:41;;;;;;;;;;;;;;;17.55;51.74;96810.31;30001;983;1877;-53
2022/07/28 00:42:16;;;;;;;;;;;;;;;17.57;52.14;96810.75;30001;982;1877;-59
2022/07/28 00:42:47;;;;;;;;;;;;;;;17.57;51.79;96821.75;30001;982;1877;-59
2022/07/28 00:43:18;;;;;;;;;;;;;;;17.56;52.10;96812.72;30001;982;1877;-59
2022/07/28 00:43:50;;;;;;;;;;;;;;;17.56;51.83;96815.44;30001;982;1864;-59
2022/07/28 00:44:21;;;;;;;;;;;;;;;17.56;52.32;96815.44;30001;982;1868;-61
2022/07/28 00:44:55;;;;;;;;;;;;;;;17.55;52.21;96818.53;30001;982;1864;-60
2022/07/28 00:45:29;;;;;;;;;;;;;;;17.54;51.86;96817.72;30001;983;1868;-54
2022/07/28 00:46:00;;;;;;;;;;;;;;;17.52;52.26;96814.53;30001;983;1876;-59
2022/07/28 00:46:31;;;;;;;;;;;;;;;17.54;52.04;96822.41;30001;983;1876;-54
2022/07/28 00:47:02;;;;;;;;;;;;;;;17.52;51.89;96820.00;30001;983;1863;-59
2022/07/28 00:47:32;;;;;;;;;;;;;;;17.52;52.46;96820.00;30001;983;1868;-60
2022/07/28 00:48:04;;;;;;;;;;;;;;;17.51;52.19;96818.41;30001;983;1877;-53
2022/07/28 00:48:38;;;;;;;;;;;;;;;17.51;52.29;96817.59;30001;983;1877;-54
2022/07/28 00:49:11;;;;;;;;;;;;;;;17.51;52.30;96823.09;30001;983;1864;-60
2022/07/28 00:49:44;;;;;;;;;;;;;;;17.50;52.21;96821.47;30001;982;1855;-59
2022/07/28 00:50:17;;;;;;;;;;;;;;;17.48;51.98;96823.75;30001;982;1877;-54
2022/07/28 00:50:48;;;;;;;;;;;;;;;17.48;52.08;96824.56;30001;982;1877;-54
2022/07/28 00:51:20;;;;;;;;;;;;;;;17.48;52.11;96819.09;30001;982;1877;-59
2022/07/28 00:51:52;;;;;;;;;;;;;;;17.48;52.43;96819.09;30001;982;1877;-58
2022/07/28 00:52:23;;;;;;;;;;;;;;;17.49;52.08;96825.38;30001;982;1877;-55
2022/07/28 00:52:54;;;;;;;;;;;;;;;17.48;52.05;96827.31;30001;982;1877;-54
2022/07/28 00:53:26;;;;;;;;;;;;;;;17.47;53.06;96831.19;30001;983;1876;-54
2022/07/28 00:53:57;;;;;;;;;;;;;;;17.44;52.79;96826.38;30001;983;1876;-60
2022/07/28 00:54:29;;;;;;;;;;;;;;;17.41;53.63;96825.13;30001;983;1863;-53
2022/07/28 00:55:02;;;;;;;;;;;;;;;17.38;52.98;96825.78;30001;983;1868;-58
2022/07/28 00:55:33;;;;;;;;;;;;;;;17.38;52.90;96828.53;30001;983;1877;-54
2022/07/28 00:56:04;;;;;;;;;;;;;;;17.37;53.05;96823.37;30001;983;1877;-59
2022/07/28 00:56:35;;;;;;;;;;;;;;;17.38;53.17;96831.28;30001;983;1864;-53
2022/07/28 00:57:06;;;;;;;;;;;;;;;17.36;53.26;96822.56;30001;983;1868;-60
2022/07/28 00:57:39;;;;;;;;;;;;;;;17.35;52.99;96820.97;30001;982;1877;-60
2022/07/28 00:58:10;;;;;;;;;;;;;;;17.32;53.93;96827.16;30001;982;1877;-54
2022/07/28 00:58:41;;;;;;;;;;;;;;;17.28;53.20;96820.75;30001;982;1877;-54
2022/07/28 00:59:11;;;;;;;;;;;;;;;17.26;53.55;96822.22;30001;982;1877;-59
2022/07/28 00:59:43;;;;;;;;;;;;;;;17.25;53.07;96821.41;30001;982;1878;-60
2022/07/28 01:00:15;;;;;;;;;;;;;;;17.25;53.89;96826.09;30001;982;1877;-59
2022/07/28 01:00:46;;;;;;;;;;;;;;;17.24;53.47;96825.31;30001;983;1863;-55
2022/07/28 01:01:18;;;;;;;;;;;;;;;17.23;53.27;96820.94;30001;983;1868;-55
2022/07/28 01:01:49;;;;;;;;;;;;;;;17.24;53.48;96819.00;30001;983;1863;-53
2022/07/28 01:02:20;;;;;;;;;;;;;;;17.24;53.72;96830.78;30001;983;1868;-53
2022/07/28 01:02:53;;;;;;;;;;;;;;;17.23;53.34;96829.19;30001;983;1877;-59
2022/07/28 01:03:25;;;;;;;;;;;;;;;17.24;53.79;96819.00;30001;986;1877;-53
2022/07/28 01:03:59;;;;;;;;;;;;;;;17.23;53.52;96817.41;30001;983;1877;-59
2022/07/28 01:04:36;;;;;;;;;;;;;;;17.22;53.61;96822.09;30001;983;1877;-59
2022/07/28 01:05:07;;;;;;;;;;;;;;;17.19;52.84;96817.28;30001;982;1877;-53
2022/07/28 01:05:52;;;;;;;;;;;;;;;17.17;53.16;96814.06;30001;982;1877;-53
2022/07/28 01:06:48;;;;;;;;;;;;;;;17.15;53.13;96810.88;30001;982;1864;-54
2022/07/28 01:07:36;;;;;;;;;;;;;;;17.15;53.21;96821.81;30001;983;1863;-54
2022/07/28 01:08:16;;;;;;;;;;;;;;;17.16;53.29;96817.16;30001;983;1876;-53
2022/07/28 01:09:03;;;;;;;;;;;;;;;17.15;53.43;96816.34;30001;983;1876;-58
2022/07/28 01:10:07;;;;;;;;;;;;;;;17.15;52.93;96816.34;30001;983;1876;-53
2022/07/28 01:10:59;;;;;;;;;;;;;;;17.14;53.00;96814.75;30001;987;1859;-59
2022/07/28 01:11:52;;;;;;;;;;;;;;;17.14;53.74;96822.97;30001;983;1850;-58
2022/07/28 01:12:51;;;;;;;;;;;;;;;17.12;54.07;96822.50;30001;982;1855;-54
2022/07/28 01:13:51;;;;;;;;;;;;;;;17.08;53.52;96816.88;30001;982;1864;-53
2022/07/28 01:14:25;;;;;;;;;;;;;;;17.08;54.00;96813.34;30001;982;1872;-54
2022/07/28 01:15:27;;;;;;;;;;;;;;;17.07;53.89;96818.03;30001;983;1876;-58
2022/07/28 01:16:03;;;;;;;;;;;;;;;17.07;53.38;96811.75;30001;983;1872;-54
2022/07/28 01:16:37;;;;;;;;;;;;;;;17.05;53.16;96808.53;30001;965;1902;-58
2022/07/28 01:17:13;;;;;;;;;;;;;;;17.05;53.90;96811.28;30001;983;1877;-53
2022/07/28 01:17:59;;;;;;;;;;;;;;;17.03;54.12;96808.06;30001;983;1863;-52
2022/07/28 01:18:32;;;;;;;;;;;;;;;16.99;53.93;96804.38;30001;983;1868;-54
2022/07/28 01:19:09;;;;;;;;;;;;;;;17.00;53.55;96804.06;30001;983;1877;-53
2022/07/28 01:20:06;;;;;;;;;;;;;;;17.00;53.87;96803.25;30001;983;1877;-53
2022/07/28 01:20:49;;;;;;;;;;;;;;;16.99;53.60;96801.66;30001;982;1873;-55
2022/07/28 01:21:24;;;;;;;;;;;;;;;16.99;54.06;96807.13;30001;982;1877;-59
2022/07/28 01:21:57;;;;;;;;;;;;;;;16.98;53.88;96805.56;30001;982;1877;-59
2022/07/28 01:22:31;;;;;;;;;;;;;;;16.98;54.10;96806.31;30001;983;1876;-52
2022/07/28 01:23:25;;;;;;;;;;;;;;;17.00;53.54;96803.25;30001;983;1863;-58
2022/07/28 01:24:22;;;;;;;;;;;;;;;17.01;53.88;96804.84;30001;969;1885;-59
2022/07/28 01:25:22;;;;;;;;;;;;;;;17.01;53.58;96802.13;30001;983;1872;-59
2022/07/28 01:26:19;;;;;;;;;;;;;;;16.99;53.50;96801.66;30001;983;1859;-59
2022/07/28 01:26:57;;;;;;;;;;;;;;;16.95;54.08;96807.03;30001;982;1864;-59
2022/07/28 01:27:50;;;;;;;;;;;;;;;16.95;54.75;96803.47;30001;982;1877;-59
2022/07/28 01:28:31;;;;;;;;;;;;;;;16.94;54.42;96810.91;30001;982;1873;-59
2022/07/28 01:29:19;;;;;;;;;;;;;;;16.94;54.51;96804.62;30001;982;1877;-59
2022/07/28 01:30:04;;;;;;;;;;;;;;;16.97;54.03;96806.69;30001;983;1876;-59
2022/07/28 01:30:42;;;;;;;;;;;;;;;16.96;53.91;96803.16;30001;983;1876;-60
2022/07/28 01:31:15;;;;;;;;;;;;;;;16.97;53.80;96798.47;30001;983;1863;-59
2022/07/28 01:32:00;;;;;;;;;;;;;;;16.97;53.74;96795.72;30001;983;1868;-59
2022/07/28 01:32:36;;;;;;;;;;;;;;;16.97;53.71;96798.47;30001;983;1863;-59
2022/07/28 01:33:38;;;;;;;;;;;;;;;16.97;53.98;96793.00;30001;983;1868;-58
2022/07/28 01:34:12;;;;;;;;;;;;;;;16.96;53.97;96791.38;30001;982;1872;-59
2022/07/28 01:34:56;;;;;;;;;;;;;;;16.95;53.94;96796.06;30001;982;1877;-58
2022/07/28 01:35:29;;;;;;;;;;;;;;;16.95;54.04;96792.53;30001;982;1877;-58
2022/07/28 01:36:08;;;;;;;;;;;;;;;16.93;54.45;96798.34;30001;982;1877;-59
2022/07/28 01:36:45;;;;;;;;;;;;;;;16.92;55.06;96795.94;30001;982;1877;-59
2022/07/28 01:37:18;;;;;;;;;;;;;;;16.92;55.10;96804.16;30001;982;1877;-59
2022/07/28 01:37:52;;;;;;;;;;;;;;;16.90;54.73;96796.25;30001;983;1863;-60
2022/07/28 01:38:31;;;;;;;;;;;;;;;16.91;55.12;96808.03;30001;983;1868;-57
2022/07/28 01:39:02;;;;;;;;;;;;;;;16.88;54.49;96801.28;30001;983;1876;-59
2022/07/28 01:39:35;;;;;;;;;;;;;;;16.88;54.90;96795.00;30001;983;1877;-59
2022/07/28 01:40:09;;;;;;;;;;;;;;;16.88;54.78;96803.22;30001;983;1877;-60
2022/07/28 01:40:44;;;;;;;;;;;;;;;16.87;54.87;96804.34;30001;983;1877;-54
2022/07/28 01:41:18;;;;;;;;;;;;;;;16.87;54.45;96801.59;30001;983;1877;-59
2022/07/28 01:41:49;;;;;;;;;;;;;;;16.87;54.33;96796.12;30001;982;1877;-59
2022/07/28 01:42:22;;;;;;;;;;;;;;;16.87;54.18;96794.19;30001;982;1877;-60
2022/07/28 01:42:55;;;;;;;;;;;;;;;16.87;54.28;96793.38;30001;982;1770;-59
2022/07/28 01:43:27;;;;;;;;;;;;;;;16.85;54.44;96790.19;30001;982;1868;-59
2022/07/28 01:44:04;;;;;;;;;;;;;;;16.86;54.55;96805.50;30001;982;1877;-59
2022/07/28 01:44:37;;;;;;;;;;;;;;;16.86;54.45;96791.78;30001;982;1877;-59
2022/07/28 01:45:10;;;;;;;;;;;;;;;16.85;54.49;96795.66;30001;983;1876;-59
2022/07/28 01:45:42;;;;;;;;;;;;;;;16.83;54.26;96787.78;30001;983;1863;-59
2022/07/28 01:46:14;;;;;;;;;;;;;;;16.83;54.47;96796.00;30001;983;1868;-60
2022/07/28 01:46:45;;;;;;;;;;;;;;;16.83;54.52;96796.00;30001;983;1877;-59
2022/07/28 01:47:18;;;;;;;;;;;;;;;16.81;54.55;96790.03;30001;983;1877;-59
2022/07/28 01:47:50;;;;;;;;;;;;;;;16.80;54.38;96793.91;30001;983;1877;-58
2022/07/28 01:48:23;;;;;;;;;;;;;;;16.80;54.99;96793.13;30001;983;1877;-59
2022/07/28 01:48:55;;;;;;;;;;;;;;;16.77;54.67;96794.59;30001;983;1877;-59
2022/07/28 01:49:28;;;;;;;;;;;;;;;16.78;54.79;96796.19;30001;982;1877;-59
2022/07/28 01:50:02;;;;;;;;;;;;;;;16.78;54.52;96792.66;30001;982;1877;-59
2022/07/28 01:50:34;;;;;;;;;;;;;;;16.78;54.57;96790.72;30001;982;1864;-59
2022/07/28 01:51:08;;;;;;;;;;;;;;;16.76;55.19;96793.00;30001;982;1855;-59
2022/07/28 01:51:40;;;;;;;;;;;;;;;16.73;55.27;96794.44;30001;965;1894;-60
2022/07/28 01:52:11;;;;;;;;;;;;;;;16.73;54.80;96793.66;30001;983;1876;-58
2022/07/28 01:52:44;;;;;;;;;;;;;;;16.72;54.78;96792.84;30001;983;1863;-59
2022/07/28 01:53:16;;;;;;;;;;;;;;;16.72;54.56;96790.13;30001;983;1868;-59
2022/07/28 01:53:48;;;;;;;;;;;;;;;16.71;54.75;96785.75;30001;983;1876;-58
2022/07/28 01:54:23;;;;;;;;;;;;;;;16.73;54.87;96793.66;30001;983;1877;-59
2022/07/28 01:54:56;;;;;;;;;;;;;;;16.73;55.11;96791.72;30001;983;1863;-59
2022/07/28 01:55:27;;;;;;;;;;;;;;;16.73;54.92;96796.41;30001;983;1868;-59
2022/07/28 01:55:59;;;;;;;;;;;;;;;16.72;55.39;96792.03;30001;983;1877;-59
2022/07/28 01:56:32;;;;;;;;;;;;;;;16.69;54.97;96792.72;30001;983;1877;-60
2022/07/28 01:57:04;;;;;;;;;;;;;;;16.66;55.11;96783.22;30001;982;1877;-59
2022/07/28 01:57:36;;;;;;;;;;;;;;;16.66;54.76;96782.44;30001;982;1877;-53
2022/07/28 01:58:07;;;;;;;;;;;;;;;16.66;54.76;96785.97;30001;982;1864;-59
2022/07/28 01:58:39;;;;;;;;;;;;;;;16.66;55.06;96782.44;30001;982;1868;-59
2022/07/28 01:59:11;;;;;;;;;;;;;;;16.65;55.00;96780.81;30001;982;1877;-58
2022/07/28 01:59:45;;;;;;;;;;;;;;;16.64;54.56;96785.50;30001;983;1876;-58
2022/07/28 02:00:16;;;;;;;;;;;;;;;16.64;55.03;96785.50;30001;983;1876;-59
2022/07/28 02:00:49;;;;;;;;;;;;;;;16.62;54.73;96787.75;30001;983;1876;-59
2022/07/28 02:01:22;;;;;;;;;;;;;;;16.60;54.95;96781.81;30001;983;1863;-58
2022/07/28 02:01:53;;;;;;;;;;;;;;;16.58;55.01;96784.09;30001;983;1868;-59
2022/07/28 02:02:26;;;;;;;;;;;;;;;16.57;55.13;96782.47;30001;983;1877;-58
2022/07/28 02:02:59;;;;;;;;;;;;;;;16.55;55.37;96782.00;30001;983;1877;-60
2022/07/28 02:03:31;;;;;;;;;;;;;;;16.54;54.99;96780.41;30001;983;1877;-59
2022/07/28 02:04:04;;;;;;;;;;;;;;;16.54;54.53;96788.62;30001;983;1864;-59
2022/07/28 02:04:37;;;;;;;;;;;;;;;16.53;54.88;96778.81;30001;982;1868;-59
2022/07/28 02:05:11;;;;;;;;;;;;;;;16.51;54.85;96780.28;30001;982;1877;-58
2022/07/28 02:05:43;;;;;;;;;;;;;;;16.51;54.61;96778.34;30001;982;1877;-59
2022/07/28 02:06:17;;;;;;;;;;;;;;;16.51;55.27;96781.06;30001;982;1877;-58
2022/07/28 02:06:49;;;;;;;;;;;;;;;16.53;56.00;96789.75;30001;977;1863;-53
2022/07/28 02:07:21;;;;;;;;;;;;;;;16.51;55.72;96781.06;30001;983;1867;-60
2022/07/28 02:07:54;;;;;;;;;;;;;;;16.51;55.26;96780.28;30001;983;1876;-54
2022/07/28 02:08:26;;;;;;;;;;;;;;;16.52;55.29;96777.19;30001;983;1876;-59
2022/07/28 02:08:58;;;;;;;;;;;;;;;16.52;54.99;96777.19;30001;962;1897;-60
2022/07/28 02:09:29;;;;;;;;;;;;;;;16.52;55.32;96771.72;30001;983;1877;-59
2022/07/28 02:10:01;;;;;;;;;;;;;;;16.53;55.09;96776.06;30001;983;1877;-59
2022/07/28 02:10:33;;;;;;;;;;;;;;;16.53;55.39;96778.81;30001;983;1877;-59
2022/07/28 02:11:54;;;;;;;;;;;;;;;16.56;55.99;96782.81;30001;982;1864;-59
2022/07/28 02:12:26;;;;;;;;;;;;;;;16.54;56.14;96777.66;30001;982;1759;-59
2022/07/28 02:12:59;;;;;;;;;;;;;;;16.52;55.92;96777.19;30001;982;1877;-59
2022/07/28 02:13:31;;;;;;;;;;;;;;;16.53;56.15;96778.81;30001;982;1877;-60
2022/07/28 02:14:03;;;;;;;;;;;;;;;16.51;56.57;96778.34;30001;982;1877;-59
2022/07/28 02:14:36;;;;;;;;;;;;;;;16.51;56.22;96774.78;30001;983;1876;-59
2022/07/28 02:15:10;;;;;;;;;;;;;;;16.51;56.03;96781.06;30001;983;1863;-59
2022/07/28 02:15:41;;;;;;;;;;;;;;;16.50;56.10;96774.00;30001;983;1867;-60
2022/07/28 02:16:13;;;;;;;;;;;;;;;16.50;56.53;96779.47;30001;983;1876;-59
2022/07/28 02:16:47;;;;;;;;;;;;;;;16.48;56.50;96776.25;30001;983;1876;-58
2022/07/28 02:17:19;;;;;;;;;;;;;;;16.48;56.56;96776.25;30001;983;1877;-59
2022/07/28 02:17:51;;;;;;;;;;;;;;;16.48;56.22;96769.97;30001;983;1877;-59
2022/07/28 02:18:22;;;;;;;;;;;;;;;16.46;56.72;96774.97;30001;983;1877;-59
2022/07/28 02:18:54;;;;;;;;;;;;;;;16.45;57.47;96776.94;30001;982;1877;-59
2022/07/28 02:19:27;;;;;;;;;;;;;;;16.40;57.29;96774.38;30001;982;1877;-59
2022/07/28 02:19:58;;;;;;;;;;;;;;;16.35;56.83;96771.84;30001;982;1877;-58
2022/07/28 02:20:29;;;;;;;;;;;;;;;16.32;56.53;96773.28;30001;982;1864;-58
2022/07/28 02:21:01;;;;;;;;;;;;;;;16.30;56.64;96774.75;30001;982;1868;-59
2022/07/28 02:21:34;;;;;;;;;;;;;;;16.28;56.75;96775.13;30001;982;1877;-58
2022/07/28 02:22:05;;;;;;;;;;;;;;;16.29;56.61;96767.69;30001;983;1876;-59
2022/07/28 02:22:38;;;;;;;;;;;;;;;16.28;56.22;96761.44;30001;983;1876;-60
2022/07/28 02:23:13;;;;;;;;;;;;;;;16.29;56.33;96765.75;30001;983;1876;-59
2022/07/28 02:23:46;;;;;;;;;;;;;;;16.29;56.76;96776.69;30001;983;1877;-59
2022/07/28 02:24:18;;;;;;;;;;;;;;;16.28;56.43;96769.66;30001;983;1877;-59
2022/07/28 02:24:50;;;;;;;;;;;;;;;16.30;57.34;96769.28;30001;983;1863;-59
2022/07/28 02:25:21;;;;;;;;;;;;;;;16.27;57.28;96772.72;30001;983;1868;-59
2022/07/28 02:25:53;;;;;;;;;;;;;;;16.24;57.63;96765.97;30001;983;1877;-59
2022/07/28 02:26:31;;;;;;;;;;;;;;;16.24;58.05;96771.44;30001;982;1877;-59
2022/07/28 02:27:10;;;;;;;;;;;;;;;16.26;58.22;96773.84;30001;982;1864;-59
2022/07/28 02:27:43;;;;;;;;;;;;;;;16.23;57.87;96769.03;30001;982;1868;-59
2022/07/28 02:28:16;;;;;;;;;;;;;;;16.23;57.93;96769.03;30001;963;1850;-59
2022/07/28 02:28:51;;;;;;;;;;;;;;;16.23;57.34;96774.50;30001;986;1872;-59
2022/07/28 02:29:23;;;;;;;;;;;;;;;16.22;57.69;96772.91;30001;982;1877;-59
2022/07/28 02:30:21;;;;;;;;;;;;;;;16.22;57.61;96765.50;30001;983;1876;-59
2022/07/28 02:30:59;;;;;;;;;;;;;;;16.14;58.45;96766.34;30001;983;1859;-59
2022/07/28 02:31:36;;;;;;;;;;;;;;;16.13;57.96;96759.25;30001;983;1868;-59
2022/07/28 02:32:11;;;;;;;;;;;;;;;16.14;58.27;96762.81;30001;983;1877;-58
2022/07/28 02:32:59;;;;;;;;;;;;;;;16.12;58.02;96762.34;30001;983;1877;-59
2022/07/28 02:33:33;;;;;;;;;;;;;;;16.08;59.23;96768.47;30002;781;1015;-59
2022/07/28 02:34:05;;;;;;;;;;;;;;;16.06;58.94;96759.78;30001;982;1877;-59
2022/07/28 02:34:37;;;;;;;;;;;;;;;16.06;59.46;96758.97;30001;982;1877;-58
2022/07/28 02:35:16;;;;;;;;;;;;;;;16.07;58.80;96766.06;30001;982;1864;-59
2022/07/28 02:35:53;;;;;;;;;;;;;;;16.07;59.13;96758.66;30001;982;1868;-59
2022/07/28 02:36:30;;;;;;;;;;;;;;;16.08;58.84;96762.19;30001;982;1877;-58
2022/07/28 02:37:03;;;;;;;;;;;;;;;16.08;58.07;96751.25;30001;983;1876;-59
2022/07/28 02:37:36;;;;;;;;;;;;;;;16.04;59.14;96758.50;30001;983;1863;-59
2022/07/28 02:38:27;;;;;;;;;;;;;;;16.02;59.31;96758.84;30001;983;1868;-59
2022/07/28 02:39:01;;;;;;;;;;;;;;;16.02;58.51;96758.84;30001;983;1872;-58
2022/07/28 02:39:35;;;;;;;;;;;;;;;16.03;59.43;96759.63;30001;983;1877;-58
2022/07/28 02:40:11;;;;;;;;;;;;;;;16.01;58.91;96762.72;30001;983;1877;-59
2022/07/28 02:40:43;;;;;;;;;;;;;;;16.03;59.03;96757.72;30001;983;1877;-59
2022/07/28 02:41:15;;;;;;;;;;;;;;;16.05;58.81;96757.38;30001;982;1877;-59
2022/07/28 02:41:49;;;;;;;;;;;;;;;16.05;59.45;96755.44;30001;982;1877;-59
2022/07/28 02:42:24;;;;;;;;;;;;;;;16.05;58.84;96758.19;30001;982;1864;-60
2022/07/28 02:42:57;;;;;;;;;;;;;;;16.05;58.72;96758.19;30001;982;1868;-59
2022/07/28 02:43:29;;;;;;;;;;;;;;;16.04;59.00;96762.03;30001;986;1877;-59
2022/07/28 02:44:02;;;;;;;;;;;;;;;16.02;58.99;96758.84;30001;982;1877;-59
2022/07/28 02:44:40;;;;;;;;;;;;;;;16.02;58.94;96758.84;30001;964;1895;-59
2022/07/28 02:45:12;;;;;;;;;;;;;;;16.01;59.06;96750.97;30001;983;1876;-59
2022/07/28 02:45:46;;;;;;;;;;;;;;;16.00;59.39;96752.88;30001;983;1876;-59
2022/07/28 02:46:23;;;;;;;;;;;;;;;15.98;58.95;96752.41;30001;983;1877;-59
2022/07/28 02:46:56;;;;;;;;;;;;;;;15.96;58.78;96757.41;30001;983;1863;-58
2022/07/28 02:47:30;;;;;;;;;;;;;;;15.95;58.67;96758.56;30001;983;1868;-59
2022/07/28 02:48:02;;;;;;;;;;;;;;;15.94;58.28;96753.44;30001;983;1877;-59
2022/07/28 02:48:35;;;;;;;;;;;;;;;15.95;58.82;96746.81;30001;971;1899;-59
2022/07/28 02:49:09;;;;;;;;;;;;;;;15.94;58.94;96751.47;30001;982;1877;-59
2022/07/28 02:49:41;;;;;;;;;;;;;;;15.94;59.20;96756.94;30001;982;1877;-59
2022/07/28 02:50:13;;;;;;;;;;;;;;;15.94;58.96;96750.69;30001;982;1877;-59
2022/07/28 02:50:45;;;;;;;;;;;;;;;15.95;58.99;96753.06;30001;982;1877;-58
2022/07/28 02:51:16;;;;;;;;;;;;;;;15.96;58.65;96753.87;30001;962;1787;-59
2022/07/28 02:51:48;;;;;;;;;;;;;;;15.96;59.15;96753.87;30001;983;1867;-59
2022/07/28 02:52:21;;;;;;;;;;;;;;;15.93;59.76;96755.38;30001;983;1863;-58
2022/07/28 02:52:55;;;;;;;;;;;;;;;15.90;59.68;96758.75;30001;983;1868;-58
2022/07/28 02:53:27;;;;;;;;;;;;;;;15.91;60.27;96763.09;30001;983;1876;-58
2022/07/28 02:53:59;;;;;;;;;;;;;;;15.91;59.64;96751.34;30001;983;1876;-59
2022/07/28 02:54:31;;;;;;;;;;;;;;;15.92;59.50;96755.69;30001;983;1877;-59
2022/07/28 02:55:03;;;;;;;;;;;;;;;15.92;60.38;96761.97;30001;983;1877;-59
2022/07/28 02:55:35;;;;;;;;;;;;;;;15.89;60.82;96759.91;30001;983;1864;-59
2022/07/28 02:56:08;;;;;;;;;;;;;;;15.86;60.25;96754.28;30001;983;1868;-53
2022/07/28 02:56:40;;;;;;;;;;;;;;;15.85;59.99;96753.47;30001;982;1877;-58
2022/07/28 02:57:12;;;;;;;;;;;;;;;15.86;61.00;96755.09;30001;982;1776;-57
2022/07/28 02:57:45;;;;;;;;;;;;;;;15.85;60.62;96750.75;30001;982;1877;-58
2022/07/28 02:58:23;;;;;;;;;;;;;;;15.85;60.51;96761.69;30001;982;1877;-59
2022/07/28 02:58:55;;;;;;;;;;;;;;;15.86;60.49;96752.34;30001;983;1863;-58
2022/07/28 02:59:27;;;;;;;;;;;;;;;15.87;60.38;96750.41;30001;983;1867;-58
2022/07/28 02:59:58;;;;;;;;;;;;;;;15.87;60.17;96747.69;30001;983;1876;-59
2022/07/28 03:00:30;;;;;;;;;;;;;;;15.86;58.73;96746.87;30001;983;1876;-59
2022/07/28 03:01:01;;;;;;;;;;;;;;;15.88;58.34;96749.28;30001;983;1876;-58
2022/07/28 03:01:32;;;;;;;;;;;;;;;15.88;58.77;96752.81;30001;983;1877;-59
2022/07/28 03:02:04;;;;;;;;;;;;;;;15.90;58.29;96750.56;30001;983;1877;-59
2022/07/28 03:02:35;;;;;;;;;;;;;;;15.92;58.58;96752.97;30002;983;1877;-59
2022/07/28 03:03:07;;;;;;;;;;;;;;;15.93;58.35;96747.16;30002;983;1877;-59
2022/07/28 03:03:38;;;;;;;;;;;;;;;15.94;58.81;96747.97;30002;983;1877;-59
2022/07/28 03:04:10;;;;;;;;;;;;;;;15.95;59.32;96757.75;30002;982;1864;-59